Campo di Volo Always

IT-0403 · Friuli Venezia Giulia, 意大利

罗盘
风向 的 风向 080° Campo di Volo Always 17/35
风: 11 kt, 4 beaufort

1 kt

11 kt
改变
0 ft 2.000 4.000 6.000 8.000 10.000
Cloud Cloud
FEW 2.500
Cloud Cloud Cloud Cloud
SCT 4.000
Cloud Cloud Cloud Cloud Cloud Cloud
BKN 6.000
METAR LIPI 221155Z 08011KT 9999 FEW025 SCT040 BKN060 12/02 Q1014 RMK OVC VIS MIN 9999 WIND THR06 11011KT WIND THR24 11013KT BLU

METAR Campo di Volo Always - IT-0403

Campo di Volo Always是,意大利中的小机场。 该机场位于纬度46,13347和经度13,27827。 该机场有一条跑道: 17/35. 这个机场没有ICAO代码,我们使用IT-0403作为参考。 机场在Milano FIR中。

该航空气象观测是针对Rivolto Air Base在2024年4月22日 13:55, 当地时间进行的。

机场观察

风向为080°,速度为11 kt。

可见度为10 km 或者更多。

有几云在2.500 ft的高度, 疏云,零星散落的云朵在4.000 ft的高度 和 碎云在6.000 ft的高度。 破损或更高的上限为6.000 ft。

温度和风寒是12 °C。 露点为2 °C,相对湿度为51%。 海平面上的气压为1014 hPa (QNH)。

白天

今天,太阳从06:07升起,在20:03降落。 这适用于Campo di Volo Always,世界夏令时可能有所不同。 当地时间与世界标准时间之间的时差为+2 小时。 夏令时目前正在进行中。

公司介绍

我们没有关于这个机场的公司信息。

体会

到Vliegles.nl去找飞行课程,跳伞和其他飞行体验。 浏览页面,了解Campo di Volo Always附近所有可用的活动。 你也可以使用搜索功能来寻找你所在地附近的特定飞行课程、跳伞或其他飞行体验。

跑道

Id 标题 侧风 逆风 侧风 %
17/35 174°-354° 11 kt 100 %

逆风成分最大的方向会被突出显示,并用于横风计算。 这并不一定意味着这个方向在使用。

乌云

2.500 ft FEW 几云
4.000 ft SCT 疏云,零星散落的云朵
6.000 ft BKN 碎云

温度 & 天气

温度 12 °C
露点 2 °C
相对湿度 51%
Kp-index 1 (0-9)

评论

OVC VIS MIN 9999 WIND THR06 11011KT WIND THR24 11013KT

白天

日出
06:08
中午
13:06
日落
20:04 (5:25)

小工具

你想在你的网站上有一个关于Campo di Volo Always的当前航空天气(METAR)的小部件吗?

显示HTML代码
报告变更